Time;durP1;ratioP1;P1;durP2;ratioP2;P2;SDS_P1;SDS_P2;PMS_P1;PMS_P2;Temp;Humidity;BMP_temperature;BMP_pressure;BME280_temperature;BME280_humidity;BME280_pressure;Samples;Min_cycle;Max_cycle;Signal;HPM_P1;HPM_P2
2021/12/09 00:01:27;;;;;;;;;26.25;26.25;;;;;10.55;91.91;100567.56;4975478;28;10859;-75
2021/12/09 00:04:00;;;;;;;;;25.50;24.50;;;;;10.57;92.29;100567.22;4981817;28;10921;-75
2021/12/09 00:06:30;;;;;;;;;24.75;24.50;;;;;10.54;92.58;100573.44;4996572;28;10910;-76
2021/12/09 00:09:05;;;;;;;;;21.50;21.50;;;;;10.57;93.06;100573.56;4995762;28;10707;-75
2021/12/09 00:11:44;;;;;;;;;20.25;18.25;;;;;10.63;92.92;100579.72;4994991;28;11716;-76
2021/12/09 00:14:22;;;;;;;;;21.50;20.75;;;;;10.64;93.22;100584.09;4987528;28;10723;-76
2021/12/09 00:16:53;;;;;;;;;23.75;23.50;;;;;10.75;92.72;100588.13;4972231;28;10637;-76
2021/12/09 00:19:21;;;;;;;;;24.75;24.75;;;;;10.73;93.45;100581.28;4976701;28;10514;-76
2021/12/09 00:21:49;;;;;;;;;27.75;26.25;;;;;10.71;93.87;100578.84;4976786;28;10845;-76
2021/12/09 00:24:17;;;;;;;;;24.25;21.25;;;;;10.75;94.02;100582.59;4977583;28;10783;-74
2021/12/09 00:26:59;;;;;;;;;25.00;24.00;;;;;10.76;94.26;100578.69;4988889;28;10790;-75
2021/12/09 00:29:27;;;;;;;;;21.00;21.00;;;;;10.84;93.64;100588.88;4976533;28;10671;-74
2021/12/09 00:31:54;;;;;;;;;25.75;25.75;;;;;10.93;93.33;100588.81;4976688;28;10437;-74
2021/12/09 00:34:32;;;;;;;;;20.00;19.50;;;;;10.94;93.58;100597.94;4976637;28;10899;-76
2021/12/09 00:37:33;;;;;;;;;18.25;17.25;;;;;10.97;93.53;100594.50;4975421;28;10618;-75
2021/12/09 00:39:53;;;;;;;;;25.75;25.50;;;;;10.96;94.13;100593.66;4976395;28;10658;-75
2021/12/09 00:42:24;;;;;;;;;16.50;16.50;;;;;10.95;94.41;100596.78;4976018;28;10565;-75
2021/12/09 00:45:00;;;;;;;;;25.50;20.75;;;;;10.88;94.17;100590.97;4986831;28;10432;-75
2021/12/09 00:47:30;;;;;;;;;26.50;26.25;;;;;11.00;93.80;100593.81;5010513;28;10500;-75
2021/12/09 00:50:06;;;;;;;;;23.00;21.50;;;;;10.99;93.66;100589.44;4995418;28;10589;-75
2021/12/09 00:52:36;;;;;;;;;23.50;23.00;;;;;11.03;93.69;100593.94;4995400;28;10428;-76
2021/12/09 00:55:07;;;;;;;;;20.50;20.50;;;;;10.97;94.39;100602.81;4994299;28;11285;-75
2021/12/09 00:57:37;;;;;;;;;25.00;24.50;;;;;11.02;93.90;100602.59;4995845;28;10409;-76
2021/12/09 01:00:17;;;;;;;;;18.25;15.50;;;;;11.02;94.00;100597.06;4995454;28;10708;-77
2021/12/09 01:02:49;;;;;;;;;21.75;20.50;;;;;11.09;93.65;100605.63;4995142;28;10546;-76
2021/12/09 01:05:17;;;;;;;;;25.50;23.25;;;;;11.07;93.72;100602.41;4976567;28;11417;-76
2021/12/09 01:07:58;;;;;;;;;24.25;24.25;;;;;11.12;93.34;100604.97;4975571;28;10781;-76
2021/12/09 01:10:29;;;;;;;;;25.50;24.75;;;;;11.14;93.49;100610.97;4978453;28;10283;-76
2021/12/09 01:13:02;;;;;;;;;19.75;18.75;;;;;11.12;93.50;100605.78;4991882;28;10760;-76
2021/12/09 01:15:35;;;;;;;;;22.50;21.50;;;;;11.04;93.58;100609.44;4976087;28;10594;-75
2021/12/09 01:18:04;;;;;;;;;21.50;21.50;;;;;11.18;93.08;100620.22;4975828;28;10601;-76
2021/12/09 01:20:32;;;;;;;;;19.25;19.25;;;;;11.00;93.99;100615.97;4958371;28;11428;-77
2021/12/09 01:23:02;;;;;;;;;21.75;21.00;;;;;11.10;93.92;100621.91;4979242;28;10711;-76
2021/12/09 01:25:37;;;;;;;;;19.00;19.00;;;;;11.08;94.16;100623.41;5009801;28;10729;-76
2021/12/09 01:28:22;;;;;;;;;17.75;17.75;;;;;11.24;93.46;100629.16;4995206;28;10649;-76
2021/12/09 01:31:04;;;;;;;;;17.75;17.25;;;;;11.13;94.17;100628.75;4994925;28;10493;-76
2021/12/09 01:33:33;;;;;;;;;22.75;18.75;;;;;11.18;93.83;100631.28;4989536;28;10510;-76
2021/12/09 01:36:06;;;;;;;;;15.75;15.75;;;;;11.13;94.47;100637.03;4975447;28;11380;-76
2021/12/09 01:38:34;;;;;;;;;23.50;19.50;;;;;11.20;94.15;100630.97;4975309;28;10653;-77
2021/12/09 01:41:04;;;;;;;;;19.75;18.75;;;;;11.21;94.34;100640.91;4989531;28;10661;-76
2021/12/09 01:43:33;;;;;;;;;23.75;23.25;;;;;11.14;94.22;100635.91;4980711;28;10648;-77
2021/12/09 01:46:23;;;;;;;;;14.25;14.25;;;;;11.14;94.62;100641.44;4994729;28;10585;-76
2021/12/09 01:48:59;;;;;;;;;25.00;19.25;;;;;11.17;94.62;100640.75;4993918;28;11272;-75
2021/12/09 01:51:27;;;;;;;;;15.25;15.25;;;;;11.12;94.35;100650.06;5009195;28;11048;-75
2021/12/09 01:54:24;;;;;;;;;15.00;14.75;;;;;11.14;94.62;100645.00;4992604;28;10122;-75
2021/12/09 01:56:57;;;;;;;;;14.00;14.00;;;;;11.08;94.84;100645.53;5009180;28;10539;-75
2021/12/09 01:59:25;;;;;;;;;15.00;15.00;;;;;11.19;94.13;100651.47;4992847;28;10370;-76
2021/12/09 02:02:16;;;;;;;;;9.75;9.75;;;;;11.21;93.74;100661.09;5006195;28;10427;-76
2021/12/09 02:04:44;;;;;;;;;13.50;13.50;;;;;11.23;93.71;100660.75;4978473;28;10348;-76
2021/12/09 02:07:12;;;;;;;;;13.25;13.25;;;;;11.19;92.78;100660.59;4974915;28;10260;-76
2021/12/09 02:09:40;;;;;;;;;14.00;14.00;;;;;11.07;93.12;100668.81;4973534;28;10523;-76
2021/12/09 02:12:22;;;;;;;;;14.00;13.00;;;;;11.08;93.00;100671.25;4987143;28;11368;-77
2021/12/09 02:14:52;;;;;;;;;13.00;13.00;;;;;11.21;92.43;100676.88;4975579;28;10339;-76
2021/12/09 02:17:20;;;;;;;;;10.50;9.75;;;;;10.91;92.68;100679.66;4973621;28;10359;-75
2021/12/09 02:19:48;;;;;;;;;11.00;11.00;;;;;10.95;92.77;100675.06;4973793;28;10248;-75
2021/12/09 02:22:31;;;;;;;;;10.00;10.00;;;;;10.90;92.92;100680.81;4973828;28;10472;-75
2021/12/09 02:25:16;;;;;;;;;12.00;12.00;;;;;10.92;92.44;100684.03;4992195;28;11040;-76
2021/12/09 02:27:45;;;;;;;;;8.00;7.50;;;;;10.96;92.15;100684.16;4991928;28;10380;-75
2021/12/09 02:30:13;;;;;;;;;9.00;9.00;;;;;10.99;91.32;100689.06;4993000;28;10352;-76
2021/12/09 02:32:42;;;;;;;;;7.75;7.75;;;;;10.91;90.87;100687.94;5009021;28;10292;-76
2021/12/09 02:35:10;;;;;;;;;6.50;6.50;;;;;10.84;90.14;100693.19;5007585;28;10241;-76
2021/12/09 02:37:38;;;;;;;;;4.00;4.00;;;;;10.81;90.01;100691.91;4976884;28;11016;-77
2021/12/09 02:40:34;;;;;;;;;4.50;4.50;;;;;10.62;90.75;100698.97;4993677;28;10220;-76
2021/12/09 02:43:22;;;;;;;;;4.00;4.00;;;;;10.48;91.49;100710.25;4992543;28;10434;-76
2021/12/09 02:45:52;;;;;;;;;6.00;4.00;;;;;10.66;90.82;100708.22;4977487;28;11007;-76
2021/12/09 02:48:21;;;;;;;;;3.75;3.75;;;;;10.67;90.63;100707.91;4974441;28;11222;-77
2021/12/09 02:50:51;;;;;;;;;3.00;3.00;;;;;10.73;90.28;100712.09;4974349;28;10202;-75
2021/12/09 02:53:27;;;;;;;;;4.50;4.00;;;;;10.74;89.72;100718.47;4992277;28;10288;-75
2021/12/09 02:55:55;;;;;;;;;4.50;4.50;;;;;10.84;89.91;100716.13;4988947;28;10371;-76
2021/12/09 02:58:37;;;;;;;;;1.75;1.75;;;;;10.74;90.08;100719.28;4973918;28;11095;-76
2021/12/09 03:01:19;;;;;;;;;3.50;3.00;;;;;10.79;89.72;100719.06;4974031;28;10019;-76
2021/12/09 03:03:51;;;;;;;;;2.25;2.25;;;;;10.81;89.52;100729.81;4960706;28;10171;-75
2021/12/09 03:06:28;;;;;;;;;2.75;2.75;;;;;10.84;89.21;100732.75;4961175;28;9965;-75
2021/12/09 03:08:57;;;;;;;;;2.00;2.00;;;;;10.85;88.84;100739.88;4978236;28;10159;-76
2021/12/09 03:11:25;;;;;;;;;3.75;3.75;;;;;10.73;89.57;100747.25;4980358;28;9952;-75
2021/12/09 03:13:52;;;;;;;;;4.00;2.50;;;;;10.63;89.68;100742.88;4990136;28;10922;-74
2021/12/09 03:16:24;;;;;;;;;2.50;2.50;;;;;10.81;88.88;100747.25;4973089;28;10846;-75
2021/12/09 03:18:56;;;;;;;;;3.00;3.00;;;;;10.73;88.76;100747.25;4977791;28;10092;-75
2021/12/09 03:21:31;;;;;;;;;2.00;2.00;;;;;10.80;88.85;100750.31;4977664;28;10211;-75
2021/12/09 03:24:01;;;;;;;;;2.25;2.25;;;;;10.67;89.15;100754.94;4971606;28;10022;-76
2021/12/09 03:26:34;;;;;;;;;4.00;2.00;;;;;10.74;88.94;100760.78;4957169;28;11058;-75
2021/12/09 03:29:08;;;;;;;;;1.75;1.75;;;;;10.59;89.19;100761.31;4957496;28;10046;-75
2021/12/09 03:31:38;;;;;;;;;1.00;1.00;;;;;10.68;88.83;100766.81;4975535;28;10106;-75
2021/12/09 03:34:07;;;;;;;;;1.50;1.50;;;;;10.57;89.12;100769.09;4962435;28;10086;-75
2021/12/09 03:36:35;;;;;;;;;2.00;2.00;;;;;10.60;88.93;100776.75;4960758;28;10269;-75
2021/12/09 03:39:08;;;;;;;;;2.00;2.00;;;;;10.57;88.68;100778.19;4977972;28;10156;-75
2021/12/09 03:41:38;;;;;;;;;0.00;0.00;;;;;10.65;88.51;100776.56;4977943;28;9873;-76
2021/12/09 03:44:06;;;;;;;;;2.00;2.00;;;;;10.57;88.36;100786.50;4977318;28;10013;-76
2021/12/09 03:46:35;;;;;;;;;1.50;1.50;;;;;10.63;88.42;100784.38;4977391;28;10115;-77
2021/12/09 03:49:04;;;;;;;;;2.00;2.00;;;;;10.72;88.08;100785.16;4977209;28;10169;-77
2021/12/09 03:51:35;;;;;;;;;3.00;3.00;;;;;10.62;87.91;100785.53;4977504;28;10237;-76
2021/12/09 03:54:07;;;;;;;;;5.50;5.50;;;;;10.65;88.36;100793.16;4981017;28;10167;-76
2021/12/09 03:56:36;;;;;;;;;2.00;2.00;;;;;10.39;89.27;100797.94;4996721;28;10252;-76
2021/12/09 03:59:06;;;;;;;;;2.25;2.25;;;;;10.51;88.76;100800.84;4996716;28;10199;-76
2021/12/09 04:01:36;;;;;;;;;2.00;2.00;;;;;10.58;88.36;100798.38;4996677;28;10025;-76
2021/12/09 04:04:05;;;;;;;;;3.00;3.00;;;;;10.61;88.04;100797.72;5012222;28;10354;-76
2021/12/09 04:06:35;;;;;;;;;1.50;1.50;;;;;10.54;88.11;100803.75;4977001;28;10177;-77
2021/12/09 04:09:06;;;;;;;;;2.00;2.00;;;;;10.59;87.74;100800.03;4996153;28;10339;-76
2021/12/09 04:11:35;;;;;;;;;0.00;0.00;;;;;10.51;87.79;100806.38;4996390;28;10177;-75
2021/12/09 04:14:05;;;;;;;;;2.50;2.50;;;;;10.49;87.71;100797.56;4992527;28;10189;-77
2021/12/09 04:16:35;;;;;;;;;2.00;2.00;;;;;10.45;88.08;100804.91;4993750;28;10019;-76
2021/12/09 04:19:06;;;;;;;;;2.00;2.00;;;;;10.27;88.62;100806.88;4996283;28;10153;-76
2021/12/09 04:21:36;;;;;;;;;1.75;1.75;;;;;10.42;88.18;100814.66;4992334;28;10139;-77
2021/12/09 04:24:07;;;;;;;;;1.00;1.00;;;;;10.39;88.12;100818.09;4996033;28;10147;-76
2021/12/09 04:26:43;;;;;;;;;3.75;3.75;;;;;10.40;87.82;100810.59;4995844;28;10178;-77
2021/12/09 04:29:12;;;;;;;;;2.00;2.00;;;;;10.32;88.14;100817.75;4996210;28;10380;-77
2021/12/09 04:31:41;;;;;;;;;1.00;1.00;;;;;10.34;87.80;100820.19;4996110;28;10248;-76
2021/12/09 04:34:10;;;;;;;;;1.00;1.00;;;;;10.26;88.18;100822.63;4995852;28;10417;-77
2021/12/09 04:36:38;;;;;;;;;2.00;2.00;;;;;10.25;88.50;100822.97;4976548;28;10180;-77
2021/12/09 04:39:07;;;;;;;;;1.00;1.00;;;;;10.25;88.03;100826.53;4995987;28;10299;-77
2021/12/09 04:41:35;;;;;;;;;1.75;1.75;;;;;10.30;87.45;100833.88;4996028;28;10103;-77
2021/12/09 04:44:04;;;;;;;;;2.00;2.00;;;;;10.23;88.09;100839.06;4995783;28;10222;-75
2021/12/09 04:46:32;;;;;;;;;2.00;2.00;;;;;10.20;87.74;100843.28;5015428;28;10227;-77
2021/12/09 04:49:04;;;;;;;;;3.75;3.75;;;;;10.18;87.60;100840.00;5015466;28;10280;-76
2021/12/09 04:51:34;;;;;;;;;0.00;0.00;;;;;10.22;87.85;100838.25;5015420;28;10322;-77
2021/12/09 04:54:04;;;;;;;;;0.00;0.00;;;;;10.16;87.36;100849.78;5010749;28;10238;-77
2021/12/09 04:56:40;;;;;;;;;1.50;1.50;;;;;10.18;87.44;100851.06;5014753;28;10392;-77
2021/12/09 04:59:08;;;;;;;;;2.25;1.50;;;;;10.16;87.29;100858.06;5010341;28;10441;-75
2021/12/09 05:01:37;;;;;;;;;1.00;1.00;;;;;10.08;87.52;100853.34;5012761;28;11066;-75
2021/12/09 05:04:05;;;;;;;;;1.00;1.00;;;;;10.16;87.45;100860.81;5002959;28;10163;-75
2021/12/09 05:06:32;;;;;;;;;0.50;0.50;;;;;10.19;87.38;100863.75;4995904;28;10969;-76
2021/12/09 05:09:08;;;;;;;;;1.00;1.00;;;;;10.19;87.09;100877.56;4987575;28;10116;-75
2021/12/09 05:14:05;;;;;;;;;2.00;2.00;;;;;10.22;86.71;100874.19;5001285;28;10231;-76
2021/12/09 05:16:53;;;;;;;;;1.00;1.00;;;;;10.32;86.29;100875.81;5014802;28;10224;-76
2021/12/09 05:19:21;;;;;;;;;0.00;0.00;;;;;10.26;86.05;100877.09;4993318;28;10188;-75
2021/12/09 05:21:52;;;;;;;;;1.00;1.00;;;;;10.22;86.05;100874.19;4996749;28;10177;-76
2021/12/09 05:24:20;;;;;;;;;1.00;1.00;;;;;10.19;86.00;100885.84;5014712;28;10300;-76
2021/12/09 05:26:57;;;;;;;;;0.25;0.25;;;;;10.21;85.54;100896.59;5009808;28;10187;-75
2021/12/09 05:29:32;;;;;;;;;0.00;0.00;;;;;10.23;85.79;100892.41;4994835;28;10216;-76
2021/12/09 05:32:27;;;;;;;;;1.25;1.25;;;;;10.23;85.57;100899.88;4999372;28;10110;-74
2021/12/09 05:34:56;;;;;;;;;1.00;1.00;;;;;10.02;86.25;100897.69;4998077;28;10247;-74
2021/12/09 05:37:26;;;;;;;;;1.00;1.00;;;;;10.21;85.94;100900.19;4976923;28;10963;-74
2021/12/09 05:39:56;;;;;;;;;0.25;0.25;;;;;10.17;86.05;100910.25;5004672;28;10164;-73
2021/12/09 05:42:29;;;;;;;;;1.00;1.00;;;;;10.13;86.15;100917.56;5005219;28;10787;-73
2021/12/09 05:45:01;;;;;;;;;1.00;1.00;;;;;10.20;86.00;100917.91;5009204;28;10147;-73
2021/12/09 05:47:30;;;;;;;;;1.00;1.00;;;;;10.04;86.60;100916.72;4993672;28;10087;-74
2021/12/09 05:50:02;;;;;;;;;1.00;1.00;;;;;10.08;86.42;100925.19;4993695;28;10137;-75
2021/12/09 05:52:31;;;;;;;;;0.25;0.25;;;;;10.16;86.39;100924.38;5011007;28;10182;-75
2021/12/09 05:55:12;;;;;;;;;1.00;1.00;;;;;10.07;85.86;100938.19;5013405;28;10034;-74
2021/12/09 05:57:41;;;;;;;;;1.00;1.00;;;;;9.84;85.88;100937.47;4995244;28;10216;-74
2021/12/09 06:00:23;;;;;;;;;1.00;1.00;;;;;9.86;86.77;100946.25;5013819;28;10329;-73
2021/12/09 06:02:50;;;;;;;;;2.00;2.00;;;;;9.94;86.42;100944.66;5013536;28;10442;-73
2021/12/09 06:05:19;;;;;;;;;2.00;2.00;;;;;9.71;87.38;100954.97;4993097;28;10411;-74
2021/12/09 06:07:49;;;;;;;;;1.00;1.00;;;;;9.76;87.21;100952.06;4995896;28;10378;-73
2021/12/09 06:10:16;;;;;;;;;1.00;1.00;;;;;9.86;87.26;100956.47;5013850;28;10479;-73
2021/12/09 06:12:45;;;;;;;;;1.25;1.25;;;;;9.99;86.74;100958.31;5013810;28;10570;-73
2021/12/09 06:15:13;;;;;;;;;2.00;2.00;;;;;9.91;86.85;100959.13;5013499;28;10390;-73
2021/12/09 06:17:42;;;;;;;;;0.75;0.75;;;;;9.80;87.10;100964.09;5013313;28;11200;-72
2021/12/09 06:20:25;;;;;;;;;1.25;1.25;;;;;9.95;87.00;100971.13;5012375;28;10086;-70
2021/12/09 06:23:07;;;;;;;;;0.75;0.75;;;;;9.85;87.19;100977.78;5004795;28;10255;-74
2021/12/09 06:25:35;;;;;;;;;3.00;3.00;;;;;9.95;87.07;100977.47;5013225;28;10187;-73
2021/12/09 06:28:31;;;;;;;;;1.00;1.00;;;;;10.00;86.95;100974.56;5010400;28;10314;-73
2021/12/09 06:31:27;;;;;;;;;3.00;3.00;;;;;10.00;87.14;100982.06;4977201;28;10300;-73
2021/12/09 06:34:11;;;;;;;;;2.25;2.25;;;;;10.02;87.24;100983.34;5001163;28;10491;-73
2021/12/09 06:36:42;;;;;;;;;1.00;1.00;;;;;10.07;87.42;100978.81;4993348;28;10260;-73
2021/12/09 06:39:17;;;;;;;;;2.00;2.00;;;;;10.08;87.55;100984.03;5009263;28;10439;-73
2021/12/09 06:41:45;;;;;;;;;2.00;2.00;;;;;10.02;88.24;100985.31;5012971;28;10234;-75
2021/12/09 06:44:23;;;;;;;;;2.00;2.00;;;;;10.12;88.10;100995.25;4981220;28;11135;-74
2021/12/09 06:46:51;;;;;;;;;1.50;1.50;;;;;10.07;88.27;100993.47;4992112;28;11081;-74
2021/12/09 06:49:19;;;;;;;;;1.00;1.00;;;;;10.03;88.36;100995.22;4997562;28;10163;-74
2021/12/09 06:51:46;;;;;;;;;1.25;1.25;;;;;10.08;88.73;101002.56;4993482;28;10223;-74
2021/12/09 06:54:28;;;;;;;;;1.25;1.25;;;;;10.05;89.04;101004.03;5026321;28;10236;-74
2021/12/09 06:56:56;;;;;;;;;3.00;2.25;;;;;10.13;88.96;101005.19;4992430;28;10399;-74
2021/12/09 06:59:24;;;;;;;;;3.50;3.50;;;;;10.08;88.49;101003.38;5007009;28;10215;-74
2021/12/09 07:01:52;;;;;;;;;2.00;2.00;;;;;10.07;88.60;101010.03;4995348;28;10428;-74
2021/12/09 07:04:20;;;;;;;;;4.00;4.00;;;;;10.02;88.54;101007.41;5005733;28;10199;-74
2021/12/09 07:06:50;;;;;;;;;4.00;4.00;;;;;10.05;89.09;101011.50;5013062;28;10508;-74
2021/12/09 07:09:28;;;;;;;;;5.50;5.50;;;;;10.06;88.70;101019.47;5005770;28;10347;-73
2021/12/09 07:11:58;;;;;;;;;6.25;6.25;;;;;10.07;89.00;101010.03;4985097;28;10343;-74
2021/12/09 07:14:26;;;;;;;;;3.00;3.00;;;;;10.04;88.83;101024.47;4993538;28;10337;-73
2021/12/09 07:16:59;;;;;;;;;7.00;7.00;;;;;10.15;88.77;101025.03;4993179;28;10455;-73
2021/12/09 07:19:27;;;;;;;;;4.25;4.25;;;;;10.18;88.59;101030.72;4997272;28;11287;-73
2021/12/09 07:21:55;;;;;;;;;5.50;5.50;;;;;10.14;88.97;101029.75;5000811;28;10358;-73
2021/12/09 07:24:51;;;;;;;;;4.50;4.50;;;;;10.19;88.73;101026.81;5003463;28;10532;-72
2021/12/09 07:27:19;;;;;;;;;6.25;6.25;;;;;10.13;88.98;101033.63;5007507;28;10441;-72
2021/12/09 07:29:46;;;;;;;;;3.25;3.25;;;;;10.22;88.99;101031.75;4993596;28;10360;-73
2021/12/09 07:32:27;;;;;;;;;5.00;5.00;;;;;10.08;89.33;101041.25;4996442;28;10037;-73
2021/12/09 07:35:26;;;;;;;;;6.75;6.75;;;;;10.20;89.12;101047.81;5011316;28;10233;-74
2021/12/09 07:37:55;;;;;;;;;8.00;7.75;;;;;10.13;89.19;101046.66;4987233;28;10466;-71
2021/12/09 07:40:50;;;;;;;;;6.75;6.75;;;;;10.17;89.59;101056.72;4993045;28;10473;-69
2021/12/09 07:43:18;;;;;;;;;3.75;3.75;;;;;10.15;89.61;101052.66;4992835;28;10443;-69
2021/12/09 07:45:46;;;;;;;;;3.00;3.00;;;;;10.18;89.72;101049.25;5005756;28;10372;-69
2021/12/09 07:48:22;;;;;;;;;2.25;2.25;;;;;10.12;90.31;101053.28;5008419;28;10208;-69
2021/12/09 07:50:50;;;;;;;;;2.25;2.25;;;;;10.21;89.96;101051.38;5001027;28;10095;-69
2021/12/09 07:53:31;;;;;;;;;3.00;3.00;;;;;10.13;90.48;101047.47;5007825;28;10368;-69
2021/12/09 07:56:27;;;;;;;;;5.50;4.00;;;;;10.25;89.76;101058.75;4993412;28;11092;-68
2021/12/09 07:58:55;;;;;;;;;3.00;3.00;;;;;10.27;89.87;101062.03;4993331;28;10122;-68
2021/12/09 08:01:23;;;;;;;;;2.75;2.75;;;;;10.22;90.08;101070.44;5011139;28;10438;-70
2021/12/09 08:03:52;;;;;;;;;2.00;2.00;;;;;10.22;90.31;101064.91;5014325;28;10256;-69
2021/12/09 08:06:47;;;;;;;;;3.25;3.25;;;;;10.19;90.65;101071.03;4982918;28;10047;-68
2021/12/09 08:09:15;;;;;;;;;5.50;5.50;;;;;10.20;90.58;101080.97;5013960;28;10174;-68
2021/12/09 08:12:11;;;;;;;;;3.75;3.75;;;;;10.22;90.44;101084.25;5015413;28;10303;-68
2021/12/09 08:14:43;;;;;;;;;1.25;1.25;;;;;10.15;91.39;101081.09;5013513;28;10305;-69
2021/12/09 08:17:44;;;;;;;;;6.25;6.25;;;;;10.23;90.64;101082.31;5015576;28;10037;-70
2021/12/09 08:20:16;;;;;;;;;5.50;5.50;;;;;10.26;90.51;101082.47;5015465;28;10130;-69
2021/12/09 08:22:46;;;;;;;;;5.00;5.00;;;;;10.22;90.77;101081.50;4999643;28;10374;-68
2021/12/09 08:25:14;;;;;;;;;4.00;4.00;;;;;10.27;90.69;101092.44;4992326;28;10267;-69
2021/12/09 08:27:44;;;;;;;;;6.00;4.50;;;;;10.11;91.33;101084.81;4994717;28;10088;-70
2021/12/09 08:30:15;;;;;;;;;5.25;5.25;;;;;10.13;91.37;101086.16;4989353;28;10289;-70
2021/12/09 08:32:44;;;;;;;;;5.00;5.00;;;;;10.18;91.04;101088.75;5013525;28;10174;-69
2021/12/09 08:35:12;;;;;;;;;4.00;4.00;;;;;10.09;91.52;101081.56;5004905;28;10348;-69
2021/12/09 08:38:08;;;;;;;;;13.75;10.50;;;;;10.32;90.94;101080.41;4989199;28;10283;-69
2021/12/09 08:41:04;;;;;;;;;4.00;4.00;;;;;10.28;90.88;101074.69;4990944;28;10566;-69
2021/12/09 08:43:32;;;;;;;;;4.00;4.00;;;;;10.39;90.70;101079.94;5015031;28;10482;-69
2021/12/09 08:46:28;;;;;;;;;8.25;8.25;;;;;10.32;90.59;101077.63;5014825;28;10448;-68
2021/12/09 08:48:56;;;;;;;;;4.00;4.00;;;;;10.33;90.59;101083.97;4981475;28;10608;-69
2021/12/09 08:51:24;;;;;;;;;5.50;5.50;;;;;10.00;92.20;101076.81;4998346;28;10495;-69
2021/12/09 08:53:54;;;;;;;;;8.25;7.75;;;;;10.08;91.92;101077.19;4987176;28;10472;-69
2021/12/09 08:56:51;;;;;;;;;6.00;6.00;;;;;10.28;90.93;101076.66;5007312;28;10384;-68
2021/12/09 08:59:21;;;;;;;;;6.75;6.75;;;;;10.34;91.10;101077.31;5005478;28;10475;-68
2021/12/09 09:02:07;;;;;;;;;6.00;6.00;;;;;10.31;91.25;101078.78;5013023;28;10398;-70
2021/12/09 09:04:35;;;;;;;;;6.50;6.50;;;;;10.26;91.19;101076.13;5012820;28;10494;-68
2021/12/09 09:07:07;;;;;;;;;6.50;6.50;;;;;10.34;90.98;101069.81;5014963;28;10522;-69
2021/12/09 09:09:39;;;;;;;;;6.25;5.00;;;;;10.25;90.99;101086.38;5014806;28;10319;-69
2021/12/09 09:12:16;;;;;;;;;3.75;3.75;;;;;10.14;91.54;101081.44;5013932;28;10321;-69
2021/12/09 09:14:45;;;;;;;;;6.75;6.75;;;;;10.24;91.26;101084.75;5014487;28;10478;-70
2021/12/09 09:17:14;;;;;;;;;10.25;10.25;;;;;10.20;91.30;101088.47;5009669;28;10593;-70
2021/12/09 09:19:45;;;;;;;;;7.50;7.50;;;;;10.30;90.81;101091.78;4991838;28;11321;-70
2021/12/09 09:22:13;;;;;;;;;5.00;5.00;;;;;10.31;90.61;101089.81;4979018;28;10580;-70
2021/12/09 09:24:43;;;;;;;;;6.75;6.75;;;;;10.09;91.14;101093.44;5004062;28;10490;-70
2021/12/09 09:27:12;;;;;;;;;7.00;6.50;;;;;10.19;91.63;101092.34;4990069;28;10328;-71
2021/12/09 09:29:57;;;;;;;;;4.00;4.00;;;;;10.22;91.38;101095.31;4976821;28;11064;-70
2021/12/09 09:32:26;;;;;;;;;2.50;2.50;;;;;10.16;91.77;101092.97;4999720;28;10416;-68
2021/12/09 09:35:22;;;;;;;;;4.75;4.75;;;;;10.20;91.42;101091.22;4985584;28;10239;-69
2021/12/09 09:38:07;;;;;;;;;4.00;4.00;;;;;10.22;91.38;101094.47;4979291;28;10293;-70
2021/12/09 09:41:06;;;;;;;;;3.50;2.50;;;;;10.14;91.65;101096.06;5010809;28;11106;-70
2021/12/09 09:47:11;;;;;;;;;5.00;5.00;;;;;10.34;90.65;101100.22;5007472;28;10138;-69
2021/12/09 09:49:43;;;;;;;;;5.75;5.75;;;;;10.23;90.93;101099.72;5000724;28;10231;-69
2021/12/09 09:52:25;;;;;;;;;4.00;4.00;;;;;10.29;90.92;101097.63;4993042;28;10296;-70
2021/12/09 09:54:55;;;;;;;;;3.75;3.75;;;;;10.19;91.17;101098.66;4976718;28;10260;-70
2021/12/09 09:57:25;;;;;;;;;6.25;6.25;;;;;10.31;90.55;101100.88;4973410;28;10477;-70
2021/12/09 10:00:21;;;;;;;;;3.00;3.00;;;;;10.13;90.63;101091.69;5007863;28;10473;-69
2021/12/09 10:02:53;;;;;;;;;2.50;2.50;;;;;10.14;90.35;101101.59;5013426;28;10151;-69
2021/12/09 10:05:49;;;;;;;;;4.00;4.00;;;;;10.17;90.58;101095.41;5012351;28;10185;-70
2021/12/09 10:08:46;;;;;;;;;3.00;3.00;;;;;10.17;90.19;101102.91;4983418;28;11088;-70
2021/12/09 10:11:29;;;;;;;;;2.50;2.50;;;;;10.18;90.21;101101.75;5011784;28;10387;-69
2021/12/09 10:14:30;;;;;;;;;2.75;2.75;;;;;9.92;90.87;101096.94;5008442;28;10382;-69
2021/12/09 10:17:10;;;;;;;;;2.00;2.00;;;;;10.03;90.61;101094.69;4999750;28;10200;-70
2021/12/09 10:20:03;;;;;;;;;2.00;2.00;;;;;9.98;90.26;101103.97;4996529;28;10447;-69
2021/12/09 10:22:34;;;;;;;;;1.00;1.00;;;;;9.96;90.83;101105.38;5012986;28;11209;-70
2021/12/09 10:25:19;;;;;;;;;1.00;1.00;;;;;10.05;90.43;101106.28;5013175;28;10278;-71
2021/12/09 10:27:59;;;;;;;;;3.50;3.50;;;;;9.94;91.23;101102.13;5013320;28;10482;-71
2021/12/09 10:30:36;;;;;;;;;3.50;2.50;;;;;9.88;91.74;101103.38;4992524;28;10439;-72
2021/12/09 10:33:06;;;;;;;;;2.00;2.00;;;;;9.89;91.64;101105.00;5013200;28;10479;-71
2021/12/09 10:36:02;;;;;;;;;2.00;2.00;;;;;9.89;91.67;101108.63;4999155;28;11156;-70
2021/12/09 10:39:20;;;;;;;;;2.00;2.00;;;;;9.73;91.80;101108.16;4998943;28;10992;-71
2021/12/09 10:42:23;;;;;;;;;3.50;3.50;;;;;9.82;91.79;101113.78;5011997;28;10492;-71
2021/12/09 10:45:23;;;;;;;;;3.00;3.00;;;;;9.79;92.25;101106.09;5012708;28;10632;-71
2021/12/09 10:48:16;;;;;;;;;3.75;3.75;;;;;9.90;91.84;101115.78;4995972;28;10556;-71
2021/12/09 10:53:48;;;;;;;;;1.00;1.00;;;;;9.79;92.09;101113.56;5012809;28;10524;-71
2021/12/09 10:56:31;;;;;;;;;1.75;1.75;;;;;9.84;91.87;101114.28;5013140;28;10228;-71
2021/12/09 10:58:59;;;;;;;;;3.25;3.00;;;;;9.80;92.33;101117.97;5012438;28;10321;-70
2021/12/09 11:02:07;;;;;;;;;2.00;2.00;;;;;9.88;92.08;101114.44;5012699;28;10552;-70
2021/12/09 11:04:34;;;;;;;;;2.00;2.00;;;;;9.89;91.93;101111.38;5012057;28;11155;-69
2021/12/09 11:07:19;;;;;;;;;3.00;3.00;;;;;9.89;92.13;101113.31;5013140;28;10566;-70
2021/12/09 11:09:46;;;;;;;;;3.75;3.75;;;;;9.86;92.01;101117.53;5011693;28;10636;-69
2021/12/09 11:12:28;;;;;;;;;2.50;2.00;;;;;9.93;91.47;101126.19;5012931;28;10714;-73
2021/12/09 11:15:01;;;;;;;;;2.00;2.00;;;;;9.90;91.52;101120.50;5012217;28;10391;-71
2021/12/09 11:17:38;;;;;;;;;3.00;2.00;;;;;9.77;91.63;101129.66;5028941;28;10661;-71
2021/12/09 11:20:06;;;;;;;;;3.00;3.00;;;;;9.79;91.97;101125.44;4975702;28;10566;-71
2021/12/09 11:22:37;;;;;;;;;3.00;3.00;;;;;9.88;91.57;101131.00;5013371;28;10392;-71
2021/12/09 11:25:33;;;;;;;;;3.25;3.25;;;;;9.84;91.60;101128.09;5016204;28;10411;-71
2021/12/09 11:28:29;;;;;;;;;5.50;5.50;;;;;9.73;91.84;101134.97;5015042;28;10399;-70
2021/12/09 11:31:15;;;;;;;;;3.00;3.00;;;;;9.74;91.57;101140.22;5015775;28;10353;-70
2021/12/09 11:33:45;;;;;;;;;3.00;3.00;;;;;9.83;91.45;101145.78;4999304;28;10522;-70
2021/12/09 11:36:17;;;;;;;;;2.00;2.00;;;;;9.81;91.40;101144.44;5016318;28;10417;-69
2021/12/09 11:39:13;;;;;;;;;2.50;2.50;;;;;9.67;92.00;101142.59;5014988;28;10337;-69
2021/12/09 11:41:43;;;;;;;;;2.00;2.00;;;;;9.67;91.79;101141.78;5002615;28;10340;-69
2021/12/09 11:44:12;;;;;;;;;2.25;2.25;;;;;9.73;91.48;101146.84;4996258;28;11150;-69
2021/12/09 11:47:07;;;;;;;;;1.00;1.00;;;;;9.77;91.45;101152.56;4995702;28;11416;-69
2021/12/09 11:49:51;;;;;;;;;4.25;4.25;;;;;9.90;91.18;101154.44;4997522;28;10635;-69
2021/12/09 11:52:21;;;;;;;;;3.75;3.75;;;;;9.79;91.12;101157.78;4996454;28;10640;-70
2021/12/09 11:55:21;;;;;;;;;3.00;3.00;;;;;9.68;91.18;101162.75;4996008;28;10407;-70
2021/12/09 11:57:55;;;;;;;;;4.25;4.25;;;;;9.87;91.03;101168.06;4996363;28;10649;-69
2021/12/09 12:15:27;;;;;;;;;5.75;5.75;;;;;9.95;89.86;101183.88;4977018;28;10479;-69
2021/12/09 12:18:52;;;;;;;;;1.00;1.00;;;;;9.85;90.18;101190.50;4994082;28;10641;-70
2021/12/09 12:27:54;;;;;;;;;2.00;2.00;;;;;9.87;89.90;101202.03;4994615;28;11458;-69
2021/12/09 12:40:02;;;;;;;;;3.00;3.00;;;;;9.79;90.81;101221.31;4995540;28;10580;-69
2021/12/09 12:42:47;;;;;;;;;3.50;3.50;;;;;9.85;90.29;101225.59;4995303;28;10637;-69